Time;durP1;ratioP1;P1;durP2;ratioP2;P2;SDS_P1;SDS_P2;PMS_P1;PMS_P2;Temp;Humidity;BMP_temperature;BMP_pressure;BME280_temperature;BME280_humidity;BME280_pressure;Samples;Min_cycle;Max_cycle;Signal;HPM_P1;HPM_P2
2022/03/31 00:00:28;;;;;;;3.63;1.13;;;4.70;99.90;;;;;;4967423;28;20520;-86
2022/03/31 00:02:58;;;;;;;4.40;1.15;;;4.50;99.90;;;;;;4952878;28;20039;-86
2022/03/31 00:05:24;;;;;;;3.35;1.10;;;3.90;99.90;;;;;;4974061;28;20053;-86
2022/03/31 00:07:55;;;;;;;5.65;1.40;;;3.90;99.90;;;;;;4961265;28;20041;-86
2022/03/31 00:10:28;;;;;;;3.28;1.05;;;3.90;99.90;;;;;;4996812;28;20109;-86
2022/03/31 00:12:55;;;;;;;4.03;1.58;;;3.80;99.90;;;;;;4980295;28;20362;-87
2022/03/31 00:15:22;;;;;;;3.67;1.42;;;3.80;99.90;;;;;;4997009;28;20404;-87
2022/03/31 00:17:48;;;;;;;4.85;1.45;;;3.90;99.90;;;;;;4984753;28;20133;-87
2022/03/31 00:20:14;;;;;;;5.80;1.73;;;4.70;99.90;;;;;;4981596;28;20118;-84
2022/03/31 00:22:40;;;;;;;4.68;1.20;;;4.80;99.90;;;;;;4967652;28;20449;-85
2022/03/31 00:25:07;;;;;;;5.03;1.40;;;3.50;99.90;;;;;;4980005;28;20121;-84
2022/03/31 00:27:34;;;;;;;4.53;1.73;;;3.40;99.90;;;;;;4997704;28;20508;-84
2022/03/31 00:30:01;;;;;;;5.90;1.70;;;3.50;99.90;;;;;;4961331;28;20034;-84
2022/03/31 00:32:27;;;;;;;5.18;1.25;;;3.40;99.90;;;;;;4984395;28;20081;-85
2022/03/31 00:34:53;;;;;;;7.82;1.70;;;4.30;99.90;;;;;;4980684;28;20454;-92
2022/03/31 00:37:18;;;;;;;5.80;1.60;;;3.30;99.90;;;;;;4965629;28;20085;-91
2022/03/31 00:39:44;;;;;;;7.43;1.63;;;4.90;99.90;;;;;;4971159;28;20043;-92
2022/03/31 00:42:10;;;;;;;4.60;1.90;;;4.40;99.90;;;;;;4980100;28;20046;-92
2022/03/31 00:44:37;;;;;;;4.03;1.83;;;3.30;99.90;;;;;;4965492;28;20046;-91
2022/03/31 00:47:03;;;;;;;5.40;1.55;;;3.40;99.90;;;;;;4980270;28;20050;-92
2022/03/31 00:49:29;;;;;;;5.38;1.60;;;3.20;99.90;;;;;;4988097;28;20049;-92
2022/03/31 00:51:55;;;;;;;7.32;2.10;;;4.20;99.90;;;;;;4984374;28;20097;-87
2022/03/31 00:54:25;;;;;;;4.22;1.70;;;4.10;99.90;;;;;;4971859;28;20042;-92
2022/03/31 00:56:51;;;;;;;5.72;1.63;;;3.40;99.90;;;;;;4971284;28;20039;-91
2022/03/31 00:59:18;;;;;;;3.67;1.65;;;4.60;99.90;;;;;;4943354;28;20500;-91
2022/03/31 01:01:45;;;;;;;7.82;1.90;;;3.90;99.90;;;;;;4947482;28;20456;-92
2022/03/31 01:04:13;;;;;;;7.03;1.77;;;3.20;99.90;;;;;;4945043;28;20042;-92
2022/03/31 01:06:39;;;;;;;7.80;1.98;;;4.70;99.90;;;;;;4976888;28;20042;-92
2022/03/31 01:09:05;;;;;;;10.00;2.00;;;4.50;99.90;;;;;;4979537;28;20054;-92
2022/03/31 01:11:32;;;;;;;7.28;1.83;;;3.20;99.90;;;;;;4987036;28;20039;-92
2022/03/31 01:13:58;;;;;;;7.43;2.03;;;4.20;99.90;;;;;;4978667;28;20042;-92
2022/03/31 01:16:25;;;;;;;5.80;1.58;;;4.30;99.90;;;;;;4982762;28;20133;-92
2022/03/31 01:18:51;;;;;;;6.30;1.90;;;3.20;99.90;;;;;;4974320;28;20062;-92
2022/03/31 01:21:20;;;;;;;5.70;1.80;;;3.20;99.90;;;;;;4981086;28;20046;-92
2022/03/31 01:23:46;;;;;;;5.18;1.95;;;4.30;99.90;;;;;;4961190;28;20125;-91
2022/03/31 01:26:12;;;;;;;4.57;1.55;;;4.00;99.90;;;;;;4983376;28;20053;-87
2022/03/31 01:28:43;;;;;;;8.43;2.00;;;4.20;99.90;;;;;;4979237;28;20038;-87
2022/03/31 01:31:10;;;;;;;6.95;1.48;;;3.20;99.90;;;;;;4971030;28;20035;-87
2022/03/31 01:33:37;;;;;;;8.23;1.63;;;3.20;99.90;;;;;;4980240;28;21850;-87
2022/03/31 01:36:04;;;;;;;3.97;1.60;;;3.20;99.90;;;;;;4964500;28;20082;-87
2022/03/31 01:38:30;;;;;;;5.85;1.92;;;3.20;99.90;;;;;;4993539;28;20061;-87
2022/03/31 01:40:57;;;;;;;7.95;1.88;;;3.80;99.90;;;;;;4965513;28;20053;-87
2022/03/31 01:43:22;;;;;;;6.75;1.70;;;3.10;99.90;;;;;;4954779;28;20041;-86
2022/03/31 01:45:54;;;;;;;4.53;1.60;;;4.00;99.90;;;;;;4967533;28;20039;-86
2022/03/31 01:48:20;;;;;;;4.30;1.50;;;3.10;99.90;;;;;;4979199;28;20046;-86
2022/03/31 01:50:46;;;;;;;3.67;1.55;;;3.10;99.90;;;;;;4964721;28;20398;-87
2022/03/31 01:53:14;;;;;;;6.65;1.60;;;3.20;99.90;;;;;;4965234;28;20042;-86
2022/03/31 01:55:40;;;;;;;5.40;2.05;;;3.00;99.90;;;;;;4966998;28;20049;-87
2022/03/31 01:58:07;;;;;;;7.35;1.75;;;4.00;99.90;;;;;;4973573;28;20429;-86
2022/03/31 02:00:33;;;;;;;4.13;1.60;;;3.00;99.90;;;;;;4981102;28;20035;-86
2022/03/31 02:02:59;;;;;;;7.65;1.70;;;3.00;99.90;;;;;;4992881;28;20043;-87
2022/03/31 02:05:25;;;;;;;4.30;1.50;;;3.00;99.90;;;;;;4979451;28;20049;-87
2022/03/31 02:07:57;;;;;;;4.65;1.52;;;2.90;99.90;;;;;;4958666;28;20031;-87
2022/03/31 02:10:25;;;;;;;6.35;1.55;;;3.00;99.90;;;;;;4961052;28;20388;-86
2022/03/31 02:12:51;;;;;;;6.38;1.90;;;2.90;99.90;;;;;;4981310;28;20043;-87
2022/03/31 02:15:20;;;;;;;4.78;1.60;;;4.00;99.90;;;;;;4949026;28;20042;-92
2022/03/31 02:17:46;;;;;;;4.85;1.65;;;3.00;99.90;;;;;;4987575;28;20559;-92
2022/03/31 02:20:12;;;;;;;5.45;1.90;;;2.90;99.90;;;;;;4969773;28;20547;-85
2022/03/31 02:22:38;;;;;;;5.35;1.70;;;3.90;99.90;;;;;;4987019;28;20046;-91
2022/03/31 02:25:07;;;;;;;6.90;1.90;;;3.50;99.90;;;;;;4984942;28;20051;-85
2022/03/31 02:27:33;;;;;;;3.97;1.83;;;2.90;99.90;;;;;;4985752;28;20493;-85
2022/03/31 02:29:58;;;;;;;7.28;2.40;;;4.00;99.90;;;;;;4978453;28;20057;-85
2022/03/31 02:32:25;;;;;;;8.75;2.58;;;3.50;99.90;;;;;;4969874;28;20369;-92
2022/03/31 02:34:52;;;;;;;8.40;2.92;;;2.90;99.90;;;;;;4963212;28;20493;-92
2022/03/31 02:37:17;;;;;;;8.57;2.30;;;2.90;99.90;;;;;;4974208;28;20527;-92
2022/03/31 02:39:43;;;;;;;7.22;2.40;;;2.90;99.90;;;;;;4968739;28;20074;-92
2022/03/31 02:42:09;;;;;;;6.85;2.25;;;4.10;99.90;;;;;;4965555;28;20492;-92
2022/03/31 02:44:34;;;;;;;6.60;2.20;;;4.20;99.90;;;;;;4972550;28;20043;-92
2022/03/31 02:47:00;;;;;;;6.18;2.30;;;3.40;99.90;;;;;;4965995;28;20043;-92
2022/03/31 02:49:26;;;;;;;4.28;1.90;;;2.90;99.90;;;;;;4958577;28;20504;-86
2022/03/31 02:51:52;;;;;;;7.80;2.20;;;4.00;99.90;;;;;;4964419;28;20121;-86
2022/03/31 02:57:02;;;;;;;4.35;1.80;;;3.00;99.90;;;;;;4974346;28;20047;-87
2022/03/31 02:59:30;;;;;;;6.00;2.28;;;3.00;99.90;;;;;;4980792;28;20046;-86
2022/03/31 03:01:57;;;;;;;6.10;1.90;;;3.00;99.90;;;;;;4978326;28;20058;-86
2022/03/31 03:04:24;;;;;;;6.50;1.70;;;3.00;99.90;;;;;;4974098;28;20070;-87
2022/03/31 03:06:50;;;;;;;5.00;2.13;;;3.10;99.90;;;;;;4967622;28;20511;-84
2022/03/31 03:09:16;;;;;;;4.70;1.88;;;3.10;99.90;;;;;;4974528;28;20412;-84
2022/03/31 03:11:41;;;;;;;5.18;1.90;;;4.20;99.90;;;;;;4967489;28;20035;-85
2022/03/31 03:14:09;;;;;;;5.80;1.83;;;3.20;99.90;;;;;;4959163;28;20074;-84
2022/03/31 03:16:34;;;;;;;5.68;2.20;;;4.10;99.90;;;;;;4977624;28;20074;-84
2022/03/31 03:19:00;;;;;;;6.90;2.17;;;3.10;99.90;;;;;;4979624;28;21063;-89
2022/03/31 03:21:26;;;;;;;5.93;2.00;;;3.10;99.90;;;;;;4979771;28;20046;-88
2022/03/31 03:23:52;;;;;;;6.47;2.33;;;4.10;99.90;;;;;;4946259;28;20043;-89
2022/03/31 03:26:17;;;;;;;6.60;2.13;;;3.00;99.90;;;;;;4981821;28;20397;-89
2022/03/31 03:28:43;;;;;;;6.65;2.20;;;2.90;99.90;;;;;;4979560;28;20070;-89
2022/03/31 03:31:09;;;;;;;5.17;2.47;;;3.00;99.90;;;;;;4976539;28;20071;-88
2022/03/31 03:33:35;;;;;;;5.73;2.73;;;3.00;99.90;;;;;;4963747;28;20035;-94
2022/03/31 03:36:03;;;;;;;5.07;2.78;;;2.90;99.90;;;;;;4958535;28;20089;-94
2022/03/31 03:38:31;;;;;;;4.43;3.22;;;2.90;99.90;;;;;;4968381;28;20503;-92
2022/03/31 03:40:56;;;;;;;7.27;3.87;;;2.90;99.90;;;;;;4960964;28;20056;-92
2022/03/31 03:43:22;;;;;;;6.93;3.70;;;2.90;99.90;;;;;;4948925;28;20039;-93
2022/03/31 03:45:48;;;;;;;6.80;3.92;;;3.00;99.90;;;;;;4981902;28;20400;-93
2022/03/31 03:48:14;;;;;;;6.60;4.00;;;2.90;99.90;;;;;;4976226;28;20502;-92
2022/03/31 03:50:40;;;;;;;6.50;3.70;;;3.90;99.90;;;;;;4986829;28;20121;-92
2022/03/31 03:53:07;;;;;;;8.55;3.75;;;3.80;99.90;;;;;;4958929;28;20039;-92
2022/03/31 03:55:36;;;;;;;6.65;3.50;;;2.90;99.90;;;;;;4981365;28;20038;-93
2022/03/31 03:58:03;;;;;;;5.00;3.00;;;3.00;99.90;;;;;;4962022;28;20035;-93
2022/03/31 04:00:29;;;;;;;6.15;3.13;;;2.90;99.90;;;;;;4959386;28;20041;-92
2022/03/31 04:02:55;;;;;;;5.90;3.28;;;2.90;99.90;;;;;;4978762;28;20043;-92
2022/03/31 04:05:21;;;;;;;5.00;3.22;;;3.70;99.90;;;;;;4977136;28;20043;-92
2022/03/31 04:07:48;;;;;;;4.30;2.80;;;2.90;99.90;;;;;;4986007;28;20369;-93
2022/03/31 04:10:13;;;;;;;3.80;2.70;;;2.90;99.90;;;;;;4983167;28;20496;-93
2022/03/31 04:12:40;;;;;;;3.92;2.55;;;2.90;99.90;;;;;;4981958;28;20410;-86
2022/03/31 04:15:07;;;;;;;3.78;2.55;;;2.90;99.90;;;;;;4979201;28;20042;-86
2022/03/31 04:17:34;;;;;;;4.77;2.90;;;2.80;99.90;;;;;;4972649;28;20068;-85
2022/03/31 04:20:00;;;;;;;4.80;2.90;;;2.80;99.90;;;;;;4998574;28;20511;-86
2022/03/31 04:22:25;;;;;;;4.63;3.10;;;2.80;99.90;;;;;;5017193;28;20056;-86
2022/03/31 04:24:51;;;;;;;4.57;3.03;;;2.70;99.90;;;;;;5002738;28;20045;-86
2022/03/31 04:27:17;;;;;;;4.47;3.00;;;3.50;99.90;;;;;;4976436;28;20172;-86
2022/03/31 04:29:43;;;;;;;3.97;3.00;;;2.60;99.90;;;;;;4996891;28;20116;-86
2022/03/31 04:32:09;;;;;;;5.33;3.20;;;2.60;99.90;;;;;;4986354;28;20396;-86
2022/03/31 04:34:35;;;;;;;4.47;3.10;;;2.60;99.90;;;;;;4980953;28;20467;-86
2022/03/31 04:37:02;;;;;;;4.23;3.10;;;3.40;99.90;;;;;;4997400;28;20045;-86
2022/03/31 04:39:27;;;;;;;5.00;3.40;;;2.60;99.90;;;;;;5001746;28;20041;-86
2022/03/31 04:41:53;;;;;;;4.27;3.00;;;2.50;99.90;;;;;;4996732;28;20057;-86
2022/03/31 04:44:20;;;;;;;5.35;3.22;;;;;;;;;;4999277;28;20069;-86
2022/03/31 04:46:47;;;;;;;5.38;3.35;;;2.50;99.90;;;;;;5001993;28;20038;-89
2022/03/31 04:49:13;;;;;;;6.83;3.77;;;2.60;99.90;;;;;;4976576;28;20480;-89
2022/03/31 04:51:39;;;;;;;4.40;3.10;;;;;;;;;;5002559;28;20297;-89
2022/03/31 04:54:06;;;;;;;4.70;3.00;;;2.50;99.90;;;;;;4990492;28;20088;-88
2022/03/31 04:56:31;;;;;;;5.00;3.50;;;2.50;99.90;;;;;;5000181;28;20095;-89
2022/03/31 04:58:57;;;;;;;5.40;3.30;;;2.60;99.90;;;;;;5018777;28;20507;-89
2022/03/31 05:01:23;;;;;;;7.47;3.50;;;2.70;99.90;;;;;;4985616;28;20045;-91
2022/03/31 05:03:50;;;;;;;5.77;3.27;;;3.60;99.90;;;;;;5016152;28;20141;-91
2022/03/31 05:06:16;;;;;;;4.97;2.90;;;;;;;;;;4991556;28;20042;-90
2022/03/31 05:08:43;;;;;;;6.30;3.53;;;2.40;99.90;;;;;;4982323;28;20038;-90
2022/03/31 05:11:12;;;;;;;7.78;2.97;;;1.50;99.90;;;;;;5007069;28;20044;-90
2022/03/31 05:13:37;;;;;;;5.67;3.00;;;3.60;99.90;;;;;;4968130;28;20038;-90
2022/03/31 05:16:05;;;;;;;6.77;3.40;;;2.60;99.90;;;;;;4994230;28;20136;-90
2022/03/31 05:18:31;;;;;;;7.63;3.63;;;2.30;99.90;;;;;;4994959;28;20104;-88
2022/03/31 05:20:57;;;;;;;6.77;3.00;;;3.00;99.90;;;;;;4989748;28;20053;-92
2022/03/31 05:23:22;;;;;;;6.03;3.50;;;3.20;99.90;;;;;;4950961;28;20439;-91
2022/03/31 05:25:49;;;;;;;6.97;2.90;;;2.20;99.90;;;;;;5009697;28;20046;-91
2022/03/31 05:28:15;;;;;;;6.07;3.23;;;2.40;99.90;;;;;;5006972;28;20077;-91
2022/03/31 05:30:42;;;;;;;6.13;3.37;;;3.20;99.90;;;;;;4987504;28;21388;-91
2022/03/31 05:33:08;;;;;;;8.00;3.72;;;3.40;99.90;;;;;;4960025;28;20076;-92
2022/03/31 05:35:35;;;;;;;7.40;3.60;;;2.30;99.90;;;;;;4978328;28;20034;-90
2022/03/31 05:38:01;;;;;;;5.17;3.10;;;2.30;99.90;;;;;;4968381;28;20042;-90
2022/03/31 05:40:27;;;;;;;6.57;2.97;;;3.20;99.90;;;;;;4988172;28;20121;-91
2022/03/31 05:42:55;;;;;;;5.10;3.13;;;2.30;99.90;;;;;;5012622;28;20044;-90
2022/03/31 05:45:21;;;;;;;7.43;3.30;;;2.30;99.90;;;;;;5016288;28;20447;-91
2022/03/31 05:47:47;;;;;;;9.47;3.43;;;2.60;99.90;;;;;;4994015;28;20042;-91
2022/03/31 05:50:14;;;;;;;5.00;2.43;;;2.80;99.90;;;;;;5001979;28;20045;-91
2022/03/31 05:52:42;;;;;;;7.13;3.43;;;2.40;99.90;;;;;;4982416;28;20499;-88
2022/03/31 05:55:16;;;;;;;7.53;3.50;;;2.40;99.90;;;;;;4987322;28;20512;-88
2022/03/31 05:57:42;;;;;;;6.63;2.97;;;2.40;99.90;;;;;;4996842;28;20095;-89
2022/03/31 06:00:11;;;;;;;5.67;3.13;;;3.20;99.90;;;;;;4970022;28;20480;-88
2022/03/31 06:02:37;;;;;;;9.53;3.43;;;;;;;;;;4981059;28;20049;-87
2022/03/31 06:05:03;;;;;;;7.45;3.15;;;2.50;99.90;;;;;;4966095;28;20048;-94
2022/03/31 06:07:29;;;;;;;5.22;3.17;;;2.50;99.90;;;;;;5005707;28;20124;-93
2022/03/31 06:09:55;;;;;;;5.65;3.25;;;3.60;99.90;;;;;;4988152;28;20504;-89
2022/03/31 06:12:20;;;;;;;4.72;2.80;;;3.20;99.90;;;;;;4977295;28;20040;-89
2022/03/31 06:14:46;;;;;;;5.63;3.17;;;2.60;99.90;;;;;;4971254;28;20499;-90
2022/03/31 06:17:13;;;;;;;4.87;3.07;;;3.70;99.90;;;;;;4982566;28;20038;-89
2022/03/31 06:19:38;;;;;;;8.40;3.40;;;2.70;99.90;;;;;;4991408;28;20062;-89
2022/03/31 06:22:04;;;;;;;6.85;3.60;;;3.00;99.90;;;;;;4962999;28;20064;-89
2022/03/31 06:24:30;;;;;;;5.40;3.83;;;2.80;99.90;;;;;;4988078;28;20528;-89
2022/03/31 06:26:57;;;;;;;7.57;3.70;;;2.40;99.90;;;;;;4990071;28;20041;-89
2022/03/31 06:29:25;;;;;;;8.23;4.13;;;3.00;99.90;;;;;;4990431;28;20110;-88
2022/03/31 06:31:53;;;;;;;6.35;4.55;;;3.00;99.90;;;;;;5003636;28;20056;-89
2022/03/31 06:34:20;;;;;;;7.40;4.93;;;3.90;99.90;;;;;;4955559;28;20044;-89
2022/03/31 06:36:46;;;;;;;6.63;5.00;;;3.00;99.90;;;;;;4986294;28;20037;-89
2022/03/31 06:39:13;;;;;;;7.40;5.38;;;3.00;99.90;;;;;;5021558;28;20099;-90
2022/03/31 06:41:44;;;;;;;6.97;4.90;;;4.20;99.90;;;;;;4986821;28;20050;-93
2022/03/31 06:44:13;;;;;;;8.30;5.05;;;3.10;99.90;;;;;;4965817;28;20049;-92
2022/03/31 06:46:39;;;;;;;7.53;4.97;;;3.10;99.90;;;;;;5002908;28;20073;-94
2022/03/31 06:49:05;;;;;;;6.90;4.87;;;4.30;99.90;;;;;;4990953;28;20112;-94
2022/03/31 06:51:30;;;;;;;8.45;5.78;;;4.30;99.90;;;;;;4967877;28;20432;-92
2022/03/31 06:53:57;;;;;;;8.23;5.82;;;3.60;99.90;;;;;;4979209;28;20041;-90
2022/03/31 06:56:27;;;;;;;9.80;6.07;;;4.60;99.90;;;;;;4981305;28;20136;-93
2022/03/31 06:58:57;;;;;;;10.15;7.30;;;3.80;99.90;;;;;;4995478;28;20049;-87
2022/03/31 07:01:23;;;;;;;7.88;6.22;;;4.20;99.90;;;;;;4991797;28;20556;-90
2022/03/31 07:03:49;;;;;;;9.98;7.55;;;4.10;99.90;;;;;;4979056;28;20123;-93
2022/03/31 07:06:16;;;;;;;9.15;7.32;;;4.00;99.90;;;;;;4997889;28;20126;-92
2022/03/31 07:08:41;;;;;;;10.75;8.65;;;4.00;99.90;;;;;;4976184;28;20029;-93
2022/03/31 07:11:09;;;;;;;13.23;10.20;;;3.50;99.90;;;;;;5004591;28;20140;-93
2022/03/31 07:13:35;;;;;;;13.85;10.50;;;4.20;99.90;;;;;;4979816;28;20052;-93
2022/03/31 07:16:01;;;;;;;15.07;11.13;;;3.50;99.90;;;;;;4977591;28;20488;-88
2022/03/31 07:18:27;;;;;;;13.98;9.32;;;3.10;99.90;;;;;;5009445;28;20093;-87
2022/03/31 07:20:53;;;;;;;10.73;8.23;;;;;;;;;;4994107;28;20129;-88
2022/03/31 07:23:21;;;;;;;9.52;7.20;;;3.50;99.90;;;;;;4962275;28;20034;-88
2022/03/31 07:25:47;;;;;;;9.70;7.20;;;4.20;99.90;;;;;;4994357;28;20129;-88
2022/03/31 07:28:14;;;;;;;7.35;5.25;;;3.50;99.90;;;;;;4983395;28;20121;-88
2022/03/31 07:30:39;;;;;;;6.63;5.20;;;4.60;99.90;;;;;;4977813;28;20100;-88
2022/03/31 07:33:05;;;;;;;5.93;4.28;;;4.80;99.90;;;;;;4982604;28;20030;-93
2022/03/31 07:35:33;;;;;;;5.05;3.97;;;3.50;99.90;;;;;;4999310;28;20033;-92
2022/03/31 07:38:03;;;;;;;4.97;3.80;;;3.50;99.90;;;;;;4983134;28;20048;-93
2022/03/31 07:40:29;;;;;;;4.80;3.80;;;3.50;99.90;;;;;;4978257;28;20115;-94
2022/03/31 07:42:55;;;;;;;4.47;3.70;;;3.50;99.90;;;;;;4983429;28;20042;-93
2022/03/31 07:45:22;;;;;;;5.10;4.28;;;3.40;99.90;;;;;;4997161;28;20045;-94
2022/03/31 07:47:48;;;;;;;5.05;4.10;;;3.40;99.90;;;;;;4988851;28;20052;-93
2022/03/31 07:50:16;;;;;;;4.78;4.00;;;4.40;99.90;;;;;;4957747;28;20382;-89
2022/03/31 07:52:42;;;;;;;5.28;4.07;;;3.40;99.90;;;;;;4995426;28;20096;-90
2022/03/31 07:55:10;;;;;;;5.50;4.28;;;3.70;99.90;;;;;;4980173;28;20042;-90
2022/03/31 07:57:38;;;;;;;5.32;4.10;;;3.50;99.90;;;;;;4990483;28;20038;-90
2022/03/31 08:00:06;;;;;;;5.03;4.18;;;3.50;99.90;;;;;;4991421;28;20038;-90
2022/03/31 08:02:32;;;;;;;5.80;4.63;;;3.40;99.90;;;;;;4979502;28;20103;-90
2022/03/31 08:04:57;;;;;;;6.45;5.35;;;3.40;99.90;;;;;;4995133;28;20045;-91
2022/03/31 08:07:23;;;;;;;6.03;4.90;;;3.40;99.90;;;;;;4998001;28;20484;-89
2022/03/31 08:09:49;;;;;;;6.57;5.47;;;3.90;99.90;;;;;;4980025;28;20041;-90
2022/03/31 08:12:14;;;;;;;7.45;5.45;;;4.30;99.90;;;;;;4996654;28;20037;-90
2022/03/31 08:14:40;;;;;;;7.25;5.43;;;4.50;99.90;;;;;;4996089;28;20107;-90
2022/03/31 08:17:06;;;;;;;6.55;5.47;;;3.40;99.90;;;;;;4998240;28;20475;-89
2022/03/31 08:19:33;;;;;;;6.43;5.28;;;3.40;99.90;;;;;;4986995;28;20053;-90
2022/03/31 08:22:01;;;;;;;7.07;5.50;;;3.40;99.90;;;;;;4992696;28;20414;-89
2022/03/31 08:24:27;;;;;;;6.85;6.03;;;3.40;99.90;;;;;;4958058;28;20392;-90
2022/03/31 08:26:53;;;;;;;6.57;5.45;;;4.30;99.90;;;;;;4988825;28;20081;-89
2022/03/31 08:29:19;;;;;;;6.93;5.63;;;3.40;99.90;;;;;;4976103;28;20049;-89
2022/03/31 08:34:13;;;;;;;6.75;4.90;;;3.40;99.90;;;;;;5005100;28;20065;-87
2022/03/31 08:36:38;;;;;;;6.55;5.22;;;4.30;99.90;;;;;;4974780;28;20042;-87
2022/03/31 08:39:05;;;;;;;5.95;4.78;;;3.40;99.90;;;;;;4975934;28;20052;-87
2022/03/31 08:41:32;;;;;;;6.00;4.85;;;3.40;99.90;;;;;;4991271;28;20045;-87
2022/03/31 08:43:58;;;;;;;6.22;4.63;;;4.00;99.90;;;;;;4974888;28;20053;-87
2022/03/31 08:46:31;;;;;;;6.03;4.72;;;3.60;99.90;;;;;;4991834;28;20040;-87
2022/03/31 08:48:57;;;;;;;6.50;5.00;;;3.60;99.90;;;;;;4991542;28;20048;-87
2022/03/31 08:51:23;;;;;;;7.00;5.18;;;3.60;99.90;;;;;;4992221;28;20037;-87
2022/03/31 08:53:49;;;;;;;5.57;4.65;;;3.70;99.90;;;;;;4976205;28;20041;-87
2022/03/31 08:56:15;;;;;;;6.05;4.88;;;4.20;99.90;;;;;;4988962;28;20447;-89
2022/03/31 08:58:50;;;;;;;6.65;5.13;;;3.80;99.90;;;;;;4992004;28;20050;-89
2022/03/31 09:01:16;;;;;;;6.55;4.90;;;3.70;99.90;;;;;;4980128;28;20045;-90
2022/03/31 09:03:42;;;;;;;6.90;5.45;;;3.70;99.90;;;;;;5012568;28;20045;-90
2022/03/31 09:06:19;;;;;;;6.53;5.30;;;4.70;99.90;;;;;;4996742;28;20046;-90
2022/03/31 09:08:56;;;;;;;7.15;5.60;;;5.00;99.90;;;;;;4980417;28;20050;-90
2022/03/31 09:11:29;;;;;;;6.30;5.05;;;3.60;99.90;;;;;;4995101;28;20057;-88
2022/03/31 09:13:56;;;;;;;6.13;4.97;;;4.70;99.90;;;;;;4996021;28;20033;-88
2022/03/31 09:16:34;;;;;;;7.00;5.30;;;3.70;99.90;;;;;;4980115;28;20100;-87
2022/03/31 09:19:09;;;;;;;6.15;4.93;;;3.80;99.90;;;;;;4992446;28;20053;-87
2022/03/31 09:22:00;;;;;;;5.88;4.43;;;4.90;99.90;;;;;;4994407;28;20121;-87
2022/03/31 09:24:28;;;;;;;6.72;4.85;;;3.80;99.90;;;;;;4978908;28;20053;-87
2022/03/31 09:26:57;;;;;;;6.63;5.13;;;4.50;99.90;;;;;;4995765;28;20505;-87
2022/03/31 09:29:25;;;;;;;6.32;5.25;;;3.80;99.90;;;;;;4996332;28;20115;-87
2022/03/31 09:31:54;;;;;;;7.75;5.88;;;3.90;99.90;;;;;;4993224;28;20038;-86
2022/03/31 09:34:21;;;;;;;7.97;6.28;;;3.70;99.90;;;;;;4978582;28;20060;-88
2022/03/31 09:36:51;;;;;;;8.48;6.53;;;3.60;99.90;;;;;;4995435;28;20436;-87
2022/03/31 09:39:19;;;;;;;8.48;5.97;;;4.70;99.90;;;;;;4994383;28;20125;-87
2022/03/31 09:41:47;;;;;;;8.07;6.30;;;3.50;99.90;;;;;;4994680;28;20034;-87
2022/03/31 09:44:23;;;;;;;8.35;6.13;;;4.30;99.90;;;;;;4995137;28;20038;-87
2022/03/31 09:46:50;;;;;;;7.57;6.18;;;3.50;99.90;;;;;;4988748;28;20049;-88
2022/03/31 09:49:24;;;;;;;7.78;5.63;;;3.50;99.90;;;;;;4995838;28;20041;-87
2022/03/31 09:52:04;;;;;;;8.70;6.15;;;3.50;99.90;;;;;;4976390;28;20073;-87
2022/03/31 09:54:32;;;;;;;7.47;6.00;;;3.60;99.90;;;;;;4979490;28;20038;-87
2022/03/31 09:57:00;;;;;;;7.78;5.90;;;3.60;99.90;;;;;;4995286;28;20053;-87
2022/03/31 09:59:32;;;;;;;6.20;4.78;;;3.50;99.90;;;;;;4993076;28;20069;-87
2022/03/31 10:01:58;;;;;;;6.47;5.00;;;3.50;99.90;;;;;;4994385;28;20072;-87
2022/03/31 10:04:25;;;;;;;6.00;4.57;;;3.80;99.90;;;;;;4995299;28;20041;-86
2022/03/31 10:06:51;;;;;;;5.38;3.85;;;3.50;99.90;;;;;;4994978;28;20184;-86
2022/03/31 10:09:17;;;;;;;5.50;4.18;;;3.50;99.90;;;;;;4994731;28;20518;-86
2022/03/31 10:11:46;;;;;;;6.22;3.88;;;4.70;99.90;;;;;;4993903;28;20117;-86
2022/03/31 10:14:31;;;;;;;5.60;4.30;;;3.60;99.90;;;;;;4994550;28;20113;-86
2022/03/31 10:16:59;;;;;;;4.47;3.50;;;4.30;99.90;;;;;;4994345;28;20049;-86
2022/03/31 10:19:27;;;;;;;6.15;4.05;;;3.90;99.90;;;;;;4989839;28;20411;-88
2022/03/31 10:21:57;;;;;;;4.28;3.40;;;4.00;99.90;;;;;;4994866;28;20511;-89
2022/03/31 10:24:44;;;;;;;4.78;3.40;;;4.00;99.90;;;;;;4992437;28;20077;-88
2022/03/31 10:27:29;;;;;;;;;;;3.90;99.90;;;;;;4994752;28;20104;-89
2022/03/31 10:30:07;;;;;;;5.53;4.28;;;3.80;99.90;;;;;;4994171;28;20372;-89
2022/03/31 10:32:33;;;;;;;5.22;3.60;;;4.70;99.90;;;;;;4992568;28;20050;-88
2022/03/31 10:34:59;;;;;;;5.00;4.03;;;4.00;99.90;;;;;;5006107;28;20117;-87
2022/03/31 10:37:34;;;;;;;4.40;3.47;;;3.90;99.90;;;;;;4993803;28;20128;-89
2022/03/31 10:40:01;;;;;;;5.10;3.55;;;4.90;99.90;;;;;;5010570;28;20042;-90
2022/03/31 10:42:26;;;;;;;5.35;3.90;;;4.00;99.90;;;;;;5011283;28;20037;-90
2022/03/31 10:45:12;;;;;;;5.90;4.00;;;4.90;99.90;;;;;;5010960;28;20057;-88
2022/03/31 10:47:40;;;;;;;5.30;3.45;;;3.90;99.90;;;;;;5010765;28;20116;-88
2022/03/31 10:50:07;;;;;;;5.10;3.67;;;3.90;99.90;;;;;;4993262;28;20567;-88
2022/03/31 10:52:33;;;;;;;4.85;3.50;;;3.80;99.90;;;;;;4991954;28;20392;-87
2022/03/31 10:55:19;;;;;;;4.57;3.45;;;3.60;99.90;;;;;;5008445;28;21551;-87
2022/03/31 10:57:45;;;;;;;4.80;3.45;;;3.50;99.90;;;;;;5008071;28;20514;-87
2022/03/31 11:00:17;;;;;;;4.75;3.45;;;3.70;99.90;;;;;;5007700;28;20141;-86
2022/03/31 11:02:52;;;;;;;5.07;3.75;;;3.30;99.90;;;;;;4993245;28;20038;-87
2022/03/31 11:05:21;;;;;;;4.65;3.35;;;3.20;99.90;;;;;;5009224;28;20050;-87
2022/03/31 11:07:48;;;;;;;4.20;3.15;;;3.20;99.90;;;;;;5009600;28;20130;-86
2022/03/31 11:10:17;;;;;;;5.13;3.70;;;3.00;99.90;;;;;;5006589;28;20038;-88
2022/03/31 11:12:43;;;;;;;4.43;3.30;;;3.00;99.90;;;;;;5010237;28;20116;-88
2022/03/31 11:15:16;;;;;;;4.95;3.88;;;2.90;99.90;;;;;;5009016;28;20460;-88
2022/03/31 11:17:42;;;;;;;4.85;3.63;;;2.90;99.90;;;;;;4985499;28;20033;-85
2022/03/31 11:20:21;;;;;;;5.13;3.75;;;3.40;99.90;;;;;;5010845;28;20049;-85
2022/03/31 11:22:56;;;;;;;4.60;3.65;;;2.90;99.90;;;;;;5017571;28;20672;-85
2022/03/31 11:25:23;;;;;;;5.10;3.90;;;2.80;99.90;;;;;;5007995;28;20038;-87
2022/03/31 11:27:49;;;;;;;5.80;3.97;;;2.80;99.90;;;;;;4999914;28;20104;-87
2022/03/31 11:30:22;;;;;;;5.43;3.75;;;2.90;99.90;;;;;;5006832;28;20030;-88
2022/03/31 11:32:52;;;;;;;4.95;3.28;;;2.90;99.90;;;;;;5010341;28;20439;-89
2022/03/31 11:35:20;;;;;;;5.85;3.60;;;2.90;99.90;;;;;;5007662;28;20053;-87
2022/03/31 11:37:48;;;;;;;4.78;3.47;;;3.30;99.90;;;;;;5010406;28;20074;-87
2022/03/31 11:40:31;;;;;;;5.40;4.00;;;2.80;99.90;;;;;;5006818;28;20056;-87
2022/03/31 11:43:00;;;;;;;5.15;3.60;;;2.70;99.90;;;;;;5008204;28;20048;-85
2022/03/31 11:45:27;;;;;;;4.90;3.58;;;3.20;99.90;;;;;;5006236;28;20038;-86
2022/03/31 11:47:58;;;;;;;5.22;3.58;;;2.60;99.90;;;;;;4993537;28;20073;-85
2022/03/31 11:50:26;;;;;;;4.50;3.30;;;2.50;99.90;;;;;;4993032;28;20038;-86
2022/03/31 11:52:52;;;;;;;4.80;3.50;;;3.30;99.90;;;;;;5009018;28;20049;-85
2022/03/31 11:55:21;;;;;;;5.43;3.35;;;2.50;99.90;;;;;;4991096;28;20038;-85
2022/03/31 11:58:07;;;;;;;5.15;3.47;;;2.40;99.90;;;;;;4999107;28;20100;-86
2022/03/31 12:00:33;;;;;;;6.60;3.78;;;2.30;99.90;;;;;;5008676;28;20041;-86
2022/03/31 12:03:04;;;;;;;5.75;3.50;;;2.30;99.90;;;;;;5010480;28;20056;-86
2022/03/31 12:05:30;;;;;;;5.18;3.63;;;2.70;99.90;;;;;;4989748;28;20100;-86
2022/03/31 12:07:59;;;;;;;6.03;3.50;;;2.10;99.90;;;;;;5010122;28;20037;-86
2022/03/31 12:10:25;;;;;;;6.72;3.95;;;2.00;99.90;;;;;;4986412;28;20455;-86
2022/03/31 12:12:53;;;;;;;6.00;4.20;;;2.00;99.90;;;;;;5010127;28;20080;-85
2022/03/31 12:15:22;;;;;;;5.80;4.47;;;1.90;99.90;;;;;;5023106;28;20048;-85
2022/03/31 12:18:04;;;;;;;6.70;4.13;;;1.80;99.90;;;;;;5009893;28;20096;-86
2022/03/31 12:20:31;;;;;;;5.17;3.97;;;1.80;99.90;;;;;;5006919;28;20444;-86
2022/03/31 12:22:57;;;;;;;6.73;4.43;;;2.60;99.90;;;;;;5009236;28;20223;-87
2022/03/31 12:25:32;;;;;;;6.50;4.87;;;1.70;99.90;;;;;;5008147;28;20489;-87
2022/03/31 12:27:59;;;;;;;6.60;5.13;;;1.70;99.90;;;;;;5005596;28;20052;-86
2022/03/31 12:30:26;;;;;;;7.17;5.83;;;1.70;99.90;;;;;;4993155;28;20092;-87
2022/03/31 12:32:52;;;;;;;7.33;5.77;;;1.60;99.90;;;;;;5006247;28;20093;-86
2022/03/31 12:35:18;;;;;;;8.10;6.97;;;1.50;99.90;;;;;;5008694;28;20096;-85
2022/03/31 12:37:46;;;;;;;7.67;6.37;;;1.50;99.90;;;;;;5009967;28;20425;-86
2022/03/31 12:40:15;;;;;;;8.93;6.63;;;1.50;99.90;;;;;;5006414;28;20048;-86
2022/03/31 12:42:58;;;;;;;8.20;6.13;;;1.40;99.90;;;;;;5007900;28;20513;-85
2022/03/31 12:45:25;;;;;;;7.00;5.30;;;2.20;99.90;;;;;;5008353;28;20440;-86
2022/03/31 12:47:51;;;;;;;6.60;4.90;;;1.40;99.90;;;;;;5010230;28;20070;-86
2022/03/31 12:50:22;;;;;;;6.33;4.70;;;1.30;99.90;;;;;;4994933;28;20056;-86
2022/03/31 12:53:06;;;;;;;6.73;5.13;;;1.30;99.90;;;;;;5025714;28;20080;-86
2022/03/31 12:55:37;;;;;;;6.63;5.30;;;1.30;99.90;;;;;;5006961;28;20069;-86
2022/03/31 12:58:05;;;;;;;5.50;4.47;;;1.30;99.90;;;;;;5010092;28;20558;-86
2022/03/31 13:00:33;;;;;;;6.47;4.13;;;1.20;99.90;;;;;;5009193;28;20476;-87
2022/03/31 13:03:00;;;;;;;6.13;4.70;;;1.40;99.90;;;;;;5009044;28;20042;-87
2022/03/31 13:05:27;;;;;;;5.67;4.07;;;1.20;99.90;;;;;;5010216;28;20117;-87